OEKJ

Al Kharj AB

Al Kharj, Saudi Arabia
TAF OEKJ 192300Z 2000/2106 VRB03KT 8000 FEW040 BECMG 2006/2008 15014KT PROB30 TEMPO 2009/2015 5000 DU BLDU FEW035CB SCT040
Issued Valid From Valid To
Oct-19 @ 23:00 UTC
(3 hours ago)
Oct-20 @ 00:00 UTC
(2 hours ago)
Oct-21 @ 06:00 UTC
(-1 days ago)
Oct-20 @ 00:00 to Oct-20 @ 06:00
TAF OEKJ 192300Z 2000/2106 VRB03KT 8000 FEW040
Wind Visibility Clouds
Variable at 3 knots 7,998 meters
  • Few at 4,000' AGL
Becoming Oct-20 @ 06:00 to Oct-21 @ 06:00
BECMG 2006/2008 15014KT
Wind Visibility Clouds
150° at 14 knots 7,998 meters
  • Few at 4,000' AGL
Temporary  (Probability 30%) Oct-20 @ 09:00 to Oct-20 @ 15:00
PROB30 TEMPO 2009/2015 5000 DU BLDU FEW035CB SCT040
Visibility Clouds Conditions
5,005 meters
  • Few at 3,500' AGL
  • Scattered at 4,000' AGL
  • Dust
  • Blowing
  • Dust
TAF OEKJ 192300Z 2000/2106 VRB03KT 8000 FEW040 BECMG 2006/2008 15014KT PROB30 TEMPO 2009/2015 5000 DU BLDU FEW035CB SCT040
Issued Oct-19 @ 23:00 UTC
(3 hours ago)
Valid From Oct-20 @ 00:00 UTC
(2 hours ago)
Valid To Oct-21 @ 06:00 UTC
(-1 days ago)
Oct-20 @ 00:00 - Oct-20 @ 06:00
Wind Visibility
Variable at 3 knots 7,998 meters
Clouds
  • Few at 4,000' AGL
Becoming Oct-20 @ 06:00 - Oct-21 @ 06:00
Wind Visibility
150° at 14 knots 7,998 meters
Clouds
  • Few at 4,000' AGL
Probability 30% Temporary Oct-20 @ 09:00 - Oct-20 @ 15:00
Clouds
  • Few at 3,500' AGL
  • Scattered at 4,000' AGL
Conditions
  • Dust
  • Blowing
  • Dust